sensor_id;sensor_type;location;lat;lon;timestamp;P1;P2;P0
72307;PMS5003;60257;42.638;23.376;2023-05-21T00:02:07;25.33;24.67;16.33
72307;PMS5003;60257;42.638;23.376;2023-05-21T00:04:38;25.00;23.00;15.67
72307;PMS5003;60257;42.638;23.376;2023-05-21T00:07:04;30.33;28.00;17.00
72307;PMS5003;60257;42.638;23.376;2023-05-21T00:09:31;23.67;23.67;14.67
72307;PMS5003;60257;42.638;23.376;2023-05-21T00:11:56;25.33;24.67;16.33
72307;PMS5003;60257;42.638;23.376;2023-05-21T00:14:21;23.00;22.00;14.33
72307;PMS5003;60257;42.638;23.376;2023-05-21T00:16:47;20.33;19.33;13.67
72307;PMS5003;60257;42.638;23.376;2023-05-21T00:19:12;23.00;23.00;13.33
72307;PMS5003;60257;42.638;23.376;2023-05-21T00:21:38;20.33;17.00;8.00
72307;PMS5003;60257;42.638;23.376;2023-05-21T00:24:04;21.67;21.67;15.67
72307;PMS5003;60257;42.638;23.376;2023-05-21T00:26:30;28.33;28.33;17.00
72307;PMS5003;60257;42.638;23.376;2023-05-21T00:28:55;27.67;27.67;16.33
72307;PMS5003;60257;42.638;23.376;2023-05-21T00:31:21;23.00;18.67;13.00
72307;PMS5003;60257;42.638;23.376;2023-05-21T00:33:47;26.00;24.00;14.67
72307;PMS5003;60257;42.638;23.376;2023-05-21T00:36:12;18.00;18.00;13.67
72307;PMS5003;60257;42.638;23.376;2023-05-21T00:38:39;22.00;22.00;14.67
72307;PMS5003;60257;42.638;23.376;2023-05-21T00:41:08;22.67;21.67;13.00
72307;PMS5003;60257;42.638;23.376;2023-05-21T00:43:36;20.33;19.67;11.33
72307;PMS5003;60257;42.638;23.376;2023-05-21T00:46:14;23.00;19.00;13.00
72307;PMS5003;60257;42.638;23.376;2023-05-21T00:48:45;19.33;18.00;13.33
72307;PMS5003;60257;42.638;23.376;2023-05-21T00:51:15;23.67;22.33;13.67
72307;PMS5003;60257;42.638;23.376;2023-05-21T00:53:43;20.00;20.00;12.33
72307;PMS5003;60257;42.638;23.376;2023-05-21T00:56:09;24.00;24.00;16.00
72307;PMS5003;60257;42.638;23.376;2023-05-21T00:58:35;15.67;15.67;7.67
72307;PMS5003;60257;42.638;23.376;2023-05-21T01:01:01;23.33;19.33;12.67
72307;PMS5003;60257;42.638;23.376;2023-05-21T01:03:34;22.00;20.00;13.00
72307;PMS5003;60257;42.638;23.376;2023-05-21T01:06:05;20.00;19.00;14.00
72307;PMS5003;60257;42.638;23.376;2023-05-21T01:08:32;20.00;18.33;12.33
72307;PMS5003;60257;42.638;23.376;2023-05-21T01:10:59;26.67;25.00;16.67
72307;PMS5003;60257;42.638;23.376;2023-05-21T01:13:26;17.00;16.33;6.33
72307;PMS5003;60257;42.638;23.376;2023-05-21T01:15:51;28.00;26.33;16.00
72307;PMS5003;60257;42.638;23.376;2023-05-21T01:18:18;24.67;21.67;13.00
72307;PMS5003;60257;42.638;23.376;2023-05-21T01:20:44;33.33;31.33;18.67
72307;PMS5003;60257;42.638;23.376;2023-05-21T01:23:15;28.00;26.00;17.67
72307;PMS5003;60257;42.638;23.376;2023-05-21T01:25:42;25.67;25.00;15.33
72307;PMS5003;60257;42.638;23.376;2023-05-21T01:28:07;25.33;25.00;14.67
72307;PMS5003;60257;42.638;23.376;2023-05-21T01:30:33;33.00;32.00;19.33
72307;PMS5003;60257;42.638;23.376;2023-05-21T01:33:01;30.67;29.00;18.00
72307;PMS5003;60257;42.638;23.376;2023-05-21T01:35:32;27.33;26.00;15.00
72307;PMS5003;60257;42.638;23.376;2023-05-21T01:41:01;31.33;31.00;18.67
72307;PMS5003;60257;42.638;23.376;2023-05-21T01:43:30;32.33;31.33;19.67
72307;PMS5003;60257;42.638;23.376;2023-05-21T01:45:58;35.33;34.33;21.00
72307;PMS5003;60257;42.638;23.376;2023-05-21T01:48:26;31.00;29.33;18.00
72307;PMS5003;60257;42.638;23.376;2023-05-21T01:50:53;34.67;33.00;21.00
72307;PMS5003;60257;42.638;23.376;2023-05-21T01:53:21;20.00;18.67;16.67
72307;PMS5003;60257;42.638;23.376;2023-05-21T01:55:47;34.67;32.33;19.00
72307;PMS5003;60257;42.638;23.376;2023-05-21T01:58:12;33.67;32.00;22.00
72307;PMS5003;60257;42.638;23.376;2023-05-21T02:00:40;34.67;33.67;22.00
72307;PMS5003;60257;42.638;23.376;2023-05-21T02:03:06;38.00;35.00;23.00
72307;PMS5003;60257;42.638;23.376;2023-05-21T02:05:33;30.33;29.00;17.33
72307;PMS5003;60257;42.638;23.376;2023-05-21T02:07:58;39.00;35.00;23.33
72307;PMS5003;60257;42.638;23.376;2023-05-21T02:10:25;32.67;32.00;19.67
72307;PMS5003;60257;42.638;23.376;2023-05-21T02:12:50;30.33;30.00;18.00
72307;PMS5003;60257;42.638;23.376;2023-05-21T02:15:15;33.33;32.67;21.00
72307;PMS5003;60257;42.638;23.376;2023-05-21T02:17:44;40.67;36.00;24.00
72307;PMS5003;60257;42.638;23.376;2023-05-21T02:20:10;34.33;33.33;22.67
72307;PMS5003;60257;42.638;23.376;2023-05-21T02:22:38;35.67;34.00;22.33
72307;PMS5003;60257;42.638;23.376;2023-05-21T02:25:07;30.67;30.67;22.00
72307;PMS5003;60257;42.638;23.376;2023-05-21T02:27:34;37.33;33.00;20.67
72307;PMS5003;60257;42.638;23.376;2023-05-21T02:30:04;37.00;35.00;23.00
72307;PMS5003;60257;42.638;23.376;2023-05-21T02:32:31;41.33;34.33;23.00
72307;PMS5003;60257;42.638;23.376;2023-05-21T02:34:58;33.67;29.67;18.00
72307;PMS5003;60257;42.638;23.376;2023-05-21T02:37:24;41.00;35.00;22.00
72307;PMS5003;60257;42.638;23.376;2023-05-21T02:39:52;42.00;36.67;22.67
72307;PMS5003;60257;42.638;23.376;2023-05-21T02:42:18;41.67;36.67;24.67
72307;PMS5003;60257;42.638;23.376;2023-05-21T02:44:45;38.33;35.00;22.00
72307;PMS5003;60257;42.638;23.376;2023-05-21T02:47:10;41.67;33.67;22.00
72307;PMS5003;60257;42.638;23.376;2023-05-21T02:49:36;31.33;30.67;20.67
72307;PMS5003;60257;42.638;23.376;2023-05-21T02:52:02;40.00;36.00;24.00
72307;PMS5003;60257;42.638;23.376;2023-05-21T02:54:28;42.33;35.67;22.00
72307;PMS5003;60257;42.638;23.376;2023-05-21T02:56:53;38.33;36.33;22.33
72307;PMS5003;60257;42.638;23.376;2023-05-21T02:59:18;37.67;35.33;23.33
72307;PMS5003;60257;42.638;23.376;2023-05-21T03:01:44;36.00;35.00;22.00
72307;PMS5003;60257;42.638;23.376;2023-05-21T03:04:09;45.00;38.33;25.00
72307;PMS5003;60257;42.638;23.376;2023-05-21T03:06:35;40.67;36.67;24.00
72307;PMS5003;60257;42.638;23.376;2023-05-21T03:09:01;33.33;32.33;22.00
72307;PMS5003;60257;42.638;23.376;2023-05-21T03:11:30;33.33;33.33;22.00
72307;PMS5003;60257;42.638;23.376;2023-05-21T03:13:55;36.67;34.00;22.33
72307;PMS5003;60257;42.638;23.376;2023-05-21T03:16:21;41.67;36.33;24.00
72307;PMS5003;60257;42.638;23.376;2023-05-21T03:18:46;35.67;33.67;22.00
72307;PMS5003;60257;42.638;23.376;2023-05-21T03:21:12;43.00;36.33;21.33
72307;PMS5003;60257;42.638;23.376;2023-05-21T03:23:39;38.33;34.67;20.00
72307;PMS5003;60257;42.638;23.376;2023-05-21T03:26:06;40.67;35.00;22.33
72307;PMS5003;60257;42.638;23.376;2023-05-21T03:28:32;41.67;37.33;24.67
72307;PMS5003;60257;42.638;23.376;2023-05-21T03:30:57;40.33;36.67;24.00
72307;PMS5003;60257;42.638;23.376;2023-05-21T03:33:23;37.33;34.67;23.00
72307;PMS5003;60257;42.638;23.376;2023-05-21T03:35:48;36.33;35.00;22.00
72307;PMS5003;60257;42.638;23.376;2023-05-21T03:38:14;45.00;38.00;24.00
72307;PMS5003;60257;42.638;23.376;2023-05-21T03:40:40;35.00;34.00;22.67
72307;PMS5003;60257;42.638;23.376;2023-05-21T03:43:05;34.00;32.67;21.00
72307;PMS5003;60257;42.638;23.376;2023-05-21T03:45:31;32.33;31.33;16.67
72307;PMS5003;60257;42.638;23.376;2023-05-21T03:47:56;35.67;32.67;21.00
72307;PMS5003;60257;42.638;23.376;2023-05-21T03:50:22;35.67;30.33;20.00
72307;PMS5003;60257;42.638;23.376;2023-05-21T03:52:47;37.67;35.00;23.00
72307;PMS5003;60257;42.638;23.376;2023-05-21T03:55:13;34.33;32.33;20.00
72307;PMS5003;60257;42.638;23.376;2023-05-21T03:57:38;41.33;37.00;25.33
72307;PMS5003;60257;42.638;23.376;2023-05-21T04:00:04;34.67;33.33;21.00
72307;PMS5003;60257;42.638;23.376;2023-05-21T04:02:31;36.67;32.33;21.33
72307;PMS5003;60257;42.638;23.376;2023-05-21T04:04:56;33.33;32.33;21.33
72307;PMS5003;60257;42.638;23.376;2023-05-21T04:07:21;36.33;34.00;22.00
72307;PMS5003;60257;42.638;23.376;2023-05-21T04:09:47;37.00;33.33;21.67
72307;PMS5003;60257;42.638;23.376;2023-05-21T04:12:13;37.33;34.00;19.00
72307;PMS5003;60257;42.638;23.376;2023-05-21T04:14:38;35.00;34.00;21.00
72307;PMS5003;60257;42.638;23.376;2023-05-21T04:17:04;35.67;33.67;21.33
72307;PMS5003;60257;42.638;23.376;2023-05-21T04:19:30;33.33;32.00;20.67
72307;PMS5003;60257;42.638;23.376;2023-05-21T04:21:56;35.67;33.33;23.00
72307;PMS5003;60257;42.638;23.376;2023-05-21T04:24:22;35.67;33.33;19.67
72307;PMS5003;60257;42.638;23.376;2023-05-21T04:26:48;39.33;35.00;23.00
72307;PMS5003;60257;42.638;23.376;2023-05-21T04:29:14;35.00;34.00;22.00
72307;PMS5003;60257;42.638;23.376;2023-05-21T04:31:42;19.33;19.33;17.00
72307;PMS5003;60257;42.638;23.376;2023-05-21T04:34:08;33.00;32.33;21.00
72307;PMS5003;60257;42.638;23.376;2023-05-21T04:36:33;28.33;28.33;19.00
72307;PMS5003;60257;42.638;23.376;2023-05-21T04:38:59;28.67;28.67;19.67
72307;PMS5003;60257;42.638;23.376;2023-05-21T04:41:25;26.67;26.67;15.67
72307;PMS5003;60257;42.638;23.376;2023-05-21T04:43:50;21.00;19.33;13.00
72307;PMS5003;60257;42.638;23.376;2023-05-21T04:46:22;19.75;18.50;12.75
72307;PMS5003;60257;42.638;23.376;2023-05-21T04:48:51;19.75;19.75;12.00
72307;PMS5003;60257;42.638;23.376;2023-05-21T04:51:19;18.50;18.50;11.50
72307;PMS5003;60257;42.638;23.376;2023-05-21T04:53:46;21.75;19.00;12.75
72307;PMS5003;60257;42.638;23.376;2023-05-21T04:56:12;21.00;20.00;13.00
72307;PMS5003;60257;42.638;23.376;2023-05-21T04:58:38;16.00;15.75;10.75
72307;PMS5003;60257;42.638;23.376;2023-05-21T05:01:04;15.00;13.75;8.00
72307;PMS5003;60257;42.638;23.376;2023-05-21T05:03:30;14.25;14.25;10.00
72307;PMS5003;60257;42.638;23.376;2023-05-21T05:05:55;20.00;18.25;11.50
72307;PMS5003;60257;42.638;23.376;2023-05-21T05:08:21;21.75;18.00;11.75
72307;PMS5003;60257;42.638;23.376;2023-05-21T05:10:46;15.00;15.00;10.00
72307;PMS5003;60257;42.638;23.376;2023-05-21T05:13:12;17.75;17.75;10.75
72307;PMS5003;60257;42.638;23.376;2023-05-21T05:15:37;17.50;17.50;10.50
72307;PMS5003;60257;42.638;23.376;2023-05-21T05:18:03;15.25;15.25;10.25
72307;PMS5003;60257;42.638;23.376;2023-05-21T05:20:28;18.00;17.00;10.75
72307;PMS5003;60257;42.638;23.376;2023-05-21T05:22:53;16.00;16.00;9.25
72307;PMS5003;60257;42.638;23.376;2023-05-21T05:25:19;14.50;14.50;10.75
72307;PMS5003;60257;42.638;23.376;2023-05-21T05:27:45;16.00;14.00;10.00
72307;PMS5003;60257;42.638;23.376;2023-05-21T05:30:10;16.00;16.00;10.00
72307;PMS5003;60257;42.638;23.376;2023-05-21T05:32:36;15.00;13.50;10.50
72307;PMS5003;60257;42.638;23.376;2023-05-21T05:35:01;13.25;13.25;9.00
72307;PMS5003;60257;42.638;23.376;2023-05-21T05:37:27;16.00;14.50;10.25
72307;PMS5003;60257;42.638;23.376;2023-05-21T05:39:53;13.75;12.25;8.00
72307;PMS5003;60257;42.638;23.376;2023-05-21T05:42:18;16.75;15.75;10.00
72307;PMS5003;60257;42.638;23.376;2023-05-21T05:44:44;17.25;15.75;10.75
72307;PMS5003;60257;42.638;23.376;2023-05-21T05:47:09;12.00;12.00;8.00
72307;PMS5003;60257;42.638;23.376;2023-05-21T05:49:35;15.50;13.25;9.00
72307;PMS5003;60257;42.638;23.376;2023-05-21T05:52:01;16.00;14.75;10.00
72307;PMS5003;60257;42.638;23.376;2023-05-21T05:54:27;17.75;17.75;13.00
72307;PMS5003;60257;42.638;23.376;2023-05-21T05:56:52;14.25;14.25;8.50
72307;PMS5003;60257;42.638;23.376;2023-05-21T05:59:18;15.75;15.00;10.50
72307;PMS5003;60257;42.638;23.376;2023-05-21T06:01:43;14.50;12.50;9.00
72307;PMS5003;60257;42.638;23.376;2023-05-21T06:04:09;16.25;15.50;9.25
72307;PMS5003;60257;42.638;23.376;2023-05-21T06:06:34;17.00;16.75;13.00
72307;PMS5003;60257;42.638;23.376;2023-05-21T06:09:01;16.25;16.00;10.00
72307;PMS5003;60257;42.638;23.376;2023-05-21T06:11:26;17.25;16.50;10.50
72307;PMS5003;60257;42.638;23.376;2023-05-21T06:13:52;18.25;17.75;11.00
72307;PMS5003;60257;42.638;23.376;2023-05-21T06:16:17;18.50;18.00;11.00
72307;PMS5003;60257;42.638;23.376;2023-05-21T06:18:42;15.00;14.50;10.75
72307;PMS5003;60257;42.638;23.376;2023-05-21T06:21:08;24.00;19.00;10.75
72307;PMS5003;60257;42.638;23.376;2023-05-21T06:23:33;11.50;11.50;6.75
72307;PMS5003;60257;42.638;23.376;2023-05-21T06:26:01;15.75;15.25;11.00
72307;PMS5003;60257;42.638;23.376;2023-05-21T06:28:27;18.25;18.00;12.25
72307;PMS5003;60257;42.638;23.376;2023-05-21T06:30:53;16.75;15.75;10.50
72307;PMS5003;60257;42.638;23.376;2023-05-21T06:33:18;21.00;17.50;12.00
72307;PMS5003;60257;42.638;23.376;2023-05-21T06:35:44;15.00;15.00;11.25
72307;PMS5003;60257;42.638;23.376;2023-05-21T06:38:09;15.75;14.00;8.25
72307;PMS5003;60257;42.638;23.376;2023-05-21T06:40:35;17.50;17.00;10.00
72307;PMS5003;60257;42.638;23.376;2023-05-21T06:43:00;15.00;14.00;9.50
72307;PMS5003;60257;42.638;23.376;2023-05-21T06:45:28;17.00;17.00;9.50
72307;PMS5003;60257;42.638;23.376;2023-05-21T06:47:54;17.00;15.00;11.00
72307;PMS5003;60257;42.638;23.376;2023-05-21T06:50:19;15.75;14.75;10.25
72307;PMS5003;60257;42.638;23.376;2023-05-21T06:52:45;14.50;14.50;9.25
72307;PMS5003;60257;42.638;23.376;2023-05-21T06:55:10;16.00;16.00;11.00
72307;PMS5003;60257;42.638;23.376;2023-05-21T06:57:36;17.75;16.00;11.00
72307;PMS5003;60257;42.638;23.376;2023-05-21T07:00:02;17.00;16.25;10.25
72307;PMS5003;60257;42.638;23.376;2023-05-21T07:02:28;16.75;15.75;11.00
72307;PMS5003;60257;42.638;23.376;2023-05-21T07:04:54;11.25;11.25;7.50
72307;PMS5003;60257;42.638;23.376;2023-05-21T07:07:20;12.75;10.25;6.75
72307;PMS5003;60257;42.638;23.376;2023-05-21T07:09:46;18.75;17.75;11.00
72307;PMS5003;60257;42.638;23.376;2023-05-21T07:12:11;19.00;17.25;11.00
72307;PMS5003;60257;42.638;23.376;2023-05-21T07:14:37;15.75;15.25;9.00
72307;PMS5003;60257;42.638;23.376;2023-05-21T07:17:02;14.00;13.00;9.00
72307;PMS5003;60257;42.638;23.376;2023-05-21T07:19:28;16.50;14.50;10.00
72307;PMS5003;60257;42.638;23.376;2023-05-21T07:21:53;16.75;16.75;11.50
72307;PMS5003;60257;42.638;23.376;2023-05-21T07:24:20;14.25;13.25;8.25
72307;PMS5003;60257;42.638;23.376;2023-05-21T07:26:46;18.00;17.00;12.00
72307;PMS5003;60257;42.638;23.376;2023-05-21T07:29:11;14.25;13.75;9.00
72307;PMS5003;60257;42.638;23.376;2023-05-21T07:31:36;16.00;14.75;9.00
72307;PMS5003;60257;42.638;23.376;2023-05-21T07:34:02;17.25;16.25;11.50
72307;PMS5003;60257;42.638;23.376;2023-05-21T07:36:27;17.50;16.25;11.50
72307;PMS5003;60257;42.638;23.376;2023-05-21T07:38:53;17.00;17.00;10.50
72307;PMS5003;60257;42.638;23.376;2023-05-21T07:41:19;17.75;16.25;9.75
72307;PMS5003;60257;42.638;23.376;2023-05-21T07:43:46;16.50;16.00;10.00
72307;PMS5003;60257;42.638;23.376;2023-05-21T07:46:11;20.50;20.25;12.75
72307;PMS5003;60257;42.638;23.376;2023-05-21T07:48:36;17.50;17.25;11.50
72307;PMS5003;60257;42.638;23.376;2023-05-21T07:51:02;18.25;17.50;10.25
72307;PMS5003;60257;42.638;23.376;2023-05-21T07:53:28;16.75;16.75;11.00
72307;PMS5003;60257;42.638;23.376;2023-05-21T07:55:56;17.50;17.50;12.00
72307;PMS5003;60257;42.638;23.376;2023-05-21T07:58:22;14.75;14.75;10.00
72307;PMS5003;60257;42.638;23.376;2023-05-21T08:00:47;18.00;18.00;11.00
72307;PMS5003;60257;42.638;23.376;2023-05-21T08:03:13;16.25;16.25;10.50
72307;PMS5003;60257;42.638;23.376;2023-05-21T08:05:42;16.00;16.00;9.50
72307;PMS5003;60257;42.638;23.376;2023-05-21T08:08:12;10.00;10.00;6.75
72307;PMS5003;60257;42.638;23.376;2023-05-21T08:10:42;15.75;15.75;9.25
72307;PMS5003;60257;42.638;23.376;2023-05-21T08:13:07;16.50;15.25;9.75
72307;PMS5003;60257;42.638;23.376;2023-05-21T08:15:33;10.50;10.50;7.00
72307;PMS5003;60257;42.638;23.376;2023-05-21T08:17:58;14.75;13.50;8.75
72307;PMS5003;60257;42.638;23.376;2023-05-21T08:20:24;13.50;13.50;6.75
72307;PMS5003;60257;42.638;23.376;2023-05-21T08:22:50;16.50;14.25;9.75
72307;PMS5003;60257;42.638;23.376;2023-05-21T08:25:17;18.50;15.75;9.00
72307;PMS5003;60257;42.638;23.376;2023-05-21T08:27:43;16.00;15.00;9.00
72307;PMS5003;60257;42.638;23.376;2023-05-21T08:30:08;10.25;10.25;5.25
72307;PMS5003;60257;42.638;23.376;2023-05-21T08:32:37;14.00;11.50;7.00
72307;PMS5003;60257;42.638;23.376;2023-05-21T08:35:02;13.25;13.25;7.00
72307;PMS5003;60257;42.638;23.376;2023-05-21T08:37:28;20.25;16.75;10.25
72307;PMS5003;60257;42.638;23.376;2023-05-21T08:39:54;11.50;11.50;7.00
72307;PMS5003;60257;42.638;23.376;2023-05-21T08:42:31;15.25;15.25;8.75
72307;PMS5003;60257;42.638;23.376;2023-05-21T08:45:06;14.75;14.25;8.50
72307;PMS5003;60257;42.638;23.376;2023-05-21T08:47:34;14.50;13.25;7.00
72307;PMS5003;60257;42.638;23.376;2023-05-21T08:50:03;13.00;13.00;8.25
72307;PMS5003;60257;42.638;23.376;2023-05-21T08:52:31;20.00;16.75;11.25
72307;PMS5003;60257;42.638;23.376;2023-05-21T08:54:57;12.25;12.25;8.25
72307;PMS5003;60257;42.638;23.376;2023-05-21T08:57:24;13.75;13.75;6.75
72307;PMS5003;60257;42.638;23.376;2023-05-21T08:59:51;10.25;10.25;7.50
72307;PMS5003;60257;42.638;23.376;2023-05-21T09:02:17;14.50;13.75;8.50
72307;PMS5003;60257;42.638;23.376;2023-05-21T09:04:44;7.50;7.50;5.00
72307;PMS5003;60257;42.638;23.376;2023-05-21T09:07:13;14.75;11.00;7.00
72307;PMS5003;60257;42.638;23.376;2023-05-21T09:12:29;16.50;14.75;7.50
72307;PMS5003;60257;42.638;23.376;2023-05-21T09:14:55;15.25;15.00;9.25
72307;PMS5003;60257;42.638;23.376;2023-05-21T09:17:22;14.00;13.00;8.25
72307;PMS5003;60257;42.638;23.376;2023-05-21T09:22:38;14.25;13.00;8.00
72307;PMS5003;60257;42.638;23.376;2023-05-21T09:25:05;14.25;12.25;7.50
72307;PMS5003;60257;42.638;23.376;2023-05-21T09:27:32;12.50;12.25;7.50
72307;PMS5003;60257;42.638;23.376;2023-05-21T09:29:58;13.50;13.50;7.00
72307;PMS5003;60257;42.638;23.376;2023-05-21T09:32:24;13.75;13.75;8.75
72307;PMS5003;60257;42.638;23.376;2023-05-21T09:34:49;6.75;5.75;3.75
72307;PMS5003;60257;42.638;23.376;2023-05-21T09:37:15;9.50;8.75;5.00
72307;PMS5003;60257;42.638;23.376;2023-05-21T09:39:40;12.00;11.00;6.75
72307;PMS5003;60257;42.638;23.376;2023-05-21T09:42:07;10.00;8.50;6.00
72307;PMS5003;60257;42.638;23.376;2023-05-21T09:44:33;9.25;9.25;6.00
72307;PMS5003;60257;42.638;23.376;2023-05-21T09:46:59;9.75;9.75;7.00
72307;PMS5003;60257;42.638;23.376;2023-05-21T09:49:26;9.50;7.25;3.75
72307;PMS5003;60257;42.638;23.376;2023-05-21T09:51:58;7.00;7.00;4.00
72307;PMS5003;60257;42.638;23.376;2023-05-21T09:54:24;10.75;10.25;7.25
72307;PMS5003;60257;42.638;23.376;2023-05-21T09:56:54;9.50;9.50;6.25
72307;PMS5003;60257;42.638;23.376;2023-05-21T09:59:20;10.50;10.50;5.75
72307;PMS5003;60257;42.638;23.376;2023-05-21T10:01:48;10.50;9.00;6.75
72307;PMS5003;60257;42.638;23.376;2023-05-21T10:04:15;10.50;10.50;6.00
72307;PMS5003;60257;42.638;23.376;2023-05-21T10:06:41;14.50;11.25;7.25
72307;PMS5003;60257;42.638;23.376;2023-05-21T10:09:11;12.50;10.50;6.50
72307;PMS5003;60257;42.638;23.376;2023-05-21T10:11:39;6.25;6.00;5.75
72307;PMS5003;60257;42.638;23.376;2023-05-21T10:14:11;12.25;11.25;7.75
72307;PMS5003;60257;42.638;23.376;2023-05-21T10:16:40;12.50;11.50;6.00
72307;PMS5003;60257;42.638;23.376;2023-05-21T10:19:06;9.75;6.75;4.00
72307;PMS5003;60257;42.638;23.376;2023-05-21T10:21:35;10.75;10.50;6.25
72307;PMS5003;60257;42.638;23.376;2023-05-21T10:24:01;15.75;12.50;6.75
72307;PMS5003;60257;42.638;23.376;2023-05-21T10:26:27;12.50;11.25;7.00
72307;PMS5003;60257;42.638;23.376;2023-05-21T10:28:54;11.00;10.00;6.00
72307;PMS5003;60257;42.638;23.376;2023-05-21T10:31:21;14.75;10.00;6.00
72307;PMS5003;60257;42.638;23.376;2023-05-21T10:33:47;10.50;10.50;6.25
72307;PMS5003;60257;42.638;23.376;2023-05-21T10:36:14;14.00;12.00;6.75
72307;PMS5003;60257;42.638;23.376;2023-05-21T10:38:42;10.50;9.00;6.00
72307;PMS5003;60257;42.638;23.376;2023-05-21T10:41:09;7.25;7.00;4.50
72307;PMS5003;60257;42.638;23.376;2023-05-21T10:43:39;11.75;11.50;7.25
72307;PMS5003;60257;42.638;23.376;2023-05-21T11:00:08;12.50;12.50;8.75
72307;PMS5003;60257;42.638;23.376;2023-05-21T11:02:36;12.50;12.50;7.00
72307;PMS5003;60257;42.638;23.376;2023-05-21T11:05:02;10.75;10.75;7.75
72307;PMS5003;60257;42.638;23.376;2023-05-21T11:13:03;11.75;11.00;6.00
72307;PMS5003;60257;42.638;23.376;2023-05-21T11:21:08;12.25;12.25;7.75
72307;PMS5003;60257;42.638;23.376;2023-05-21T11:23:50;15.50;14.50;9.75
72307;PMS5003;60257;42.638;23.376;2023-05-21T11:31:28;15.00;11.25;7.25
72307;PMS5003;60257;42.638;23.376;2023-05-21T11:36:38;16.25;15.25;10.00
72307;PMS5003;60257;42.638;23.376;2023-05-21T11:39:24;16.75;16.00;8.00
72307;PMS5003;60257;42.638;23.376;2023-05-21T11:41:50;14.25;11.00;7.00
72307;PMS5003;60257;42.638;23.376;2023-05-21T11:44:16;13.50;12.25;7.25
72307;PMS5003;60257;42.638;23.376;2023-05-21T11:46:42;17.50;15.75;9.25
72307;PMS5003;60257;42.638;23.376;2023-05-21T11:49:08;15.25;13.25;9.00
72307;PMS5003;60257;42.638;23.376;2023-05-21T11:51:34;11.50;11.25;9.00
72307;PMS5003;60257;42.638;23.376;2023-05-21T11:54:00;17.25;16.50;10.25
72307;PMS5003;60257;42.638;23.376;2023-05-21T11:56:27;16.00;14.50;9.00
72307;PMS5003;60257;42.638;23.376;2023-05-21T11:58:55;15.00;14.50;10.25
72307;PMS5003;60257;42.638;23.376;2023-05-21T12:01:23;12.50;12.50;8.75
72307;PMS5003;60257;42.638;23.376;2023-05-21T12:03:48;13.25;13.25;8.00
72307;PMS5003;60257;42.638;23.376;2023-05-21T12:06:14;10.50;10.25;7.50
72307;PMS5003;60257;42.638;23.376;2023-05-21T12:08:41;14.75;14.75;9.75
72307;PMS5003;60257;42.638;23.376;2023-05-21T12:11:07;17.00;16.50;10.00
72307;PMS5003;60257;42.638;23.376;2023-05-21T12:13:33;13.00;13.00;8.25
72307;PMS5003;60257;42.638;23.376;2023-05-21T12:15:58;13.00;12.50;7.75
72307;PMS5003;60257;42.638;23.376;2023-05-21T12:18:23;14.00;14.00;9.75
72307;PMS5003;60257;42.638;23.376;2023-05-21T12:20:50;13.00;13.00;10.00
72307;PMS5003;60257;42.638;23.376;2023-05-21T12:23:22;16.25;16.00;9.75
72307;PMS5003;60257;42.638;23.376;2023-05-21T12:25:48;14.00;13.75;8.75
72307;PMS5003;60257;42.638;23.376;2023-05-21T12:28:14;16.25;13.75;8.00
72307;PMS5003;60257;42.638;23.376;2023-05-21T12:30:40;13.25;13.25;9.25
72307;PMS5003;60257;42.638;23.376;2023-05-21T12:33:05;16.75;16.75;8.50
72307;PMS5003;60257;42.638;23.376;2023-05-21T12:35:31;14.50;14.50;9.25
72307;PMS5003;60257;42.638;23.376;2023-05-21T12:37:56;12.50;12.50;9.25
72307;PMS5003;60257;42.638;23.376;2023-05-21T12:40:33;13.50;12.50;8.50
72307;PMS5003;60257;42.638;23.376;2023-05-21T12:43:00;12.00;12.00;8.75
72307;PMS5003;60257;42.638;23.376;2023-05-21T12:45:27;16.50;16.50;10.00
72307;PMS5003;60257;42.638;23.376;2023-05-21T12:47:53;15.00;13.25;9.00
72307;PMS5003;60257;42.638;23.376;2023-05-21T12:50:20;15.50;12.00;6.75
72307;PMS5003;60257;42.638;23.376;2023-05-21T12:52:46;18.50;18.00;11.25
72307;PMS5003;60257;42.638;23.376;2023-05-21T12:55:11;13.00;13.00;8.25
72307;PMS5003;60257;42.638;23.376;2023-05-21T12:57:38;13.25;13.25;9.00
72307;PMS5003;60257;42.638;23.376;2023-05-21T13:00:04;14.00;13.50;9.50
72307;PMS5003;60257;42.638;23.376;2023-05-21T13:02:31;16.50;13.00;9.00
72307;PMS5003;60257;42.638;23.376;2023-05-21T13:04:58;22.50;20.50;14.75
72307;PMS5003;60257;42.638;23.376;2023-05-21T13:07:26;12.75;12.00;9.00
72307;PMS5003;60257;42.638;23.376;2023-05-21T13:09:53;16.75;16.75;10.25
72307;PMS5003;60257;42.638;23.376;2023-05-21T13:12:23;17.00;13.75;8.00
72307;PMS5003;60257;42.638;23.376;2023-05-21T13:14:51;13.00;13.00;9.00
72307;PMS5003;60257;42.638;23.376;2023-05-21T13:17:20;16.50;12.50;9.00
72307;PMS5003;60257;42.638;23.376;2023-05-21T13:22:31;13.00;12.50;7.75
72307;PMS5003;60257;42.638;23.376;2023-05-21T13:24:57;11.25;11.25;7.75
72307;PMS5003;60257;42.638;23.376;2023-05-21T13:27:22;12.75;12.75;8.25
72307;PMS5003;60257;42.638;23.376;2023-05-21T13:29:47;16.00;13.00;8.00
72307;PMS5003;60257;42.638;23.376;2023-05-21T13:32:13;9.75;9.75;7.00
72307;PMS5003;60257;42.638;23.376;2023-05-21T13:34:38;12.00;12.00;7.75
72307;PMS5003;60257;42.638;23.376;2023-05-21T13:37:04;17.00;15.00;9.75
72307;PMS5003;60257;42.638;23.376;2023-05-21T13:39:30;10.00;9.00;5.75
72307;PMS5003;60257;42.638;23.376;2023-05-21T13:41:55;13.75;13.25;9.50
72307;PMS5003;60257;42.638;23.376;2023-05-21T13:44:21;13.25;11.75;9.25
72307;PMS5003;60257;42.638;23.376;2023-05-21T13:46:46;15.00;15.00;9.50
72307;PMS5003;60257;42.638;23.376;2023-05-21T13:49:11;12.75;12.75;6.75
72307;PMS5003;60257;42.638;23.376;2023-05-21T13:51:37;14.50;13.25;8.00
72307;PMS5003;60257;42.638;23.376;2023-05-21T13:54:02;10.25;10.25;9.00
72307;PMS5003;60257;42.638;23.376;2023-05-21T13:56:28;15.75;15.50;8.75
72307;PMS5003;60257;42.638;23.376;2023-05-21T13:58:53;15.25;13.50;8.75
72307;PMS5003;60257;42.638;23.376;2023-05-21T14:01:19;16.50;12.75;8.25
72307;PMS5003;60257;42.638;23.376;2023-05-21T14:03:44;9.25;9.25;7.00
72307;PMS5003;60257;42.638;23.376;2023-05-21T14:06:10;12.75;12.75;9.50
72307;PMS5003;60257;42.638;23.376;2023-05-21T14:08:35;17.25;17.25;9.75
72307;PMS5003;60257;42.638;23.376;2023-05-21T14:11:01;17.50;15.00;10.00
72307;PMS5003;60257;42.638;23.376;2023-05-21T14:13:27;16.25;14.00;9.25
72307;PMS5003;60257;42.638;23.376;2023-05-21T14:15:52;18.00;13.75;8.00
72307;PMS5003;60257;42.638;23.376;2023-05-21T14:18:18;17.00;16.75;8.75
72307;PMS5003;60257;42.638;23.376;2023-05-21T14:20:43;17.50;17.50;11.00
72307;PMS5003;60257;42.638;23.376;2023-05-21T14:23:09;8.25;7.25;5.25